Time;durP1;ratioP1;P1;durP2;ratioP2;P2;SDS_P1;SDS_P2;PMS_P1;PMS_P2;Temp;Humidity;BMP_temperature;BMP_pressure;BME280_temperature;BME280_humidity;BME280_pressure;Samples;Min_cycle;Max_cycle;Signal;HPM_P1;HPM_P2
2021/03/05 00:00:09;;;;;;;17.58;11.63;;;128.30;1664.00;;;;;;5080237;28;20035;-71
2021/03/05 00:02:35;;;;;;;21.95;11.25;;;128.30;1664.00;;;;;;5079786;28;20032;-72
2021/03/05 00:05:02;;;;;;;23.55;12.27;;;128.30;1664.00;;;;;;5079922;28;20036;-72
2021/03/05 00:07:27;;;;;;;19.67;11.23;;;128.20;1664.00;;;;;;5079797;28;20077;-71
2021/03/05 00:09:53;;;;;;;18.77;11.43;;;128.20;1664.00;;;;;;5080102;28;20411;-71
2021/03/05 00:12:19;;;;;;;19.08;10.82;;;128.20;1664.00;;;;;;5079710;28;20028;-71
2021/03/05 00:14:45;;;;;;;20.35;12.73;;;128.00;1689.60;;;;;;5079632;28;20103;-72
2021/03/05 00:17:11;;;;;;;22.88;13.23;;;128.10;1689.60;;;;;;5079947;28;20024;-71
2021/03/05 00:19:37;;;;;;;22.98;13.07;;;128.00;1664.00;;;;;;5079032;28;20395;-71
2021/03/05 00:22:05;;;;;;;21.50;12.52;;;128.00;1664.00;;;;;;5079486;28;20074;-71
2021/03/05 00:24:30;;;;;;;17.95;11.50;;;128.00;1664.00;;;;;;5078977;28;20024;-72
2021/03/05 00:26:56;;;;;;;20.17;10.35;;;128.00;1664.00;;;;;;5079227;28;20021;-71
2021/03/05 00:29:22;;;;;;;20.42;12.00;;;128.00;1664.00;;;;;;5079137;28;20029;-71
2021/03/05 00:31:48;;;;;;;18.75;11.52;;;128.00;1664.00;;;;;;5079437;28;20033;-71
2021/03/05 00:34:13;;;;;;;20.35;11.50;;;128.00;1664.00;;;;;;5079075;28;20020;-71
2021/03/05 00:36:39;;;;;;;22.73;12.35;;;128.00;1664.00;;;;;;5079259;28;20028;-72
2021/03/05 00:39:05;;;;;;;19.85;12.30;;;103.30;1638.40;;;;;;5079503;28;20032;-71
2021/03/05 00:41:31;;;;;;;20.42;11.40;;;103.30;1638.40;;;;;;5079164;28;20031;-72
2021/03/05 00:43:57;;;;;;;18.27;10.55;;;103.30;1638.40;;;;;;5078860;28;20021;-72
2021/03/05 00:46:23;;;;;;;21.50;12.43;;;103.20;1638.40;;;;;;5079411;28;20028;-72
2021/03/05 00:48:48;;;;;;;22.00;10.18;;;103.20;1638.40;;;;;;5079051;28;20103;-72
2021/03/05 00:51:14;;;;;;;16.50;10.05;;;103.20;1638.40;;;;;;5078876;28;20186;-72
2021/03/05 00:53:40;;;;;;;16.15;10.07;;;103.20;1638.40;;;;;;5078435;28;20028;-71
2021/03/05 00:56:06;;;;;;;17.95;10.30;;;103.20;1638.40;;;;;;5078612;28;20029;-71
2021/03/05 00:58:32;;;;;;;16.20;9.63;;;103.10;1638.40;;;;;;5078857;28;20078;-72
2021/03/05 01:00:57;;;;;;;12.38;8.50;;;103.00;1664.00;;;;;;5078512;28;20322;-71
2021/03/05 01:03:23;;;;;;;16.20;9.63;;;103.00;1664.00;;;;;;5078116;28;20426;-72
2021/03/05 01:05:49;;;;;;;18.02;9.63;;;103.00;1638.40;;;;;;5079297;28;20047;-72
2021/03/05 01:08:15;;;;;;;16.25;9.50;;;103.00;1638.40;;;;;;5078366;28;20028;-72
2021/03/05 01:10:41;;;;;;;18.33;9.15;;;103.00;1664.00;;;;;;5078917;28;20029;-71
2021/03/05 01:13:07;;;;;;;13.85;9.38;;;103.00;1638.40;;;;;;5078552;28;20432;-71
2021/03/05 01:15:33;;;;;;;17.08;9.55;;;103.00;1664.00;;;;;;5078031;28;20028;-71
2021/03/05 01:17:59;;;;;;;16.33;9.63;;;103.00;1664.00;;;;;;5078453;28;20111;-71
2021/03/05 01:20:27;;;;;;;19.33;9.10;;;103.00;1638.40;;;;;;5077906;28;20032;-71
2021/03/05 01:22:53;;;;;;;15.43;8.98;;;103.00;1664.00;;;;;;5078009;28;20046;-72
2021/03/05 01:25:22;;;;;;;22.27;10.05;;;103.00;1664.00;;;;;;5078062;28;20036;-71
2021/03/05 01:27:48;;;;;;;21.58;10.73;;;103.00;1638.40;;;;;;5077583;28;20421;-72
2021/03/05 01:30:14;;;;;;;18.85;10.40;;;103.00;1638.40;;;;;;5077958;28;20032;-71
2021/03/05 01:32:40;;;;;;;15.77;9.77;;;103.10;1638.40;;;;;;5078415;28;20032;-71
2021/03/05 01:35:22;;;;;;;20.38;10.27;;;103.00;1664.00;;;;;;5078125;28;20035;-72
2021/03/05 01:37:48;;;;;;;18.63;10.77;;;102.90;1664.00;;;;;;5077848;28;20103;-72
2021/03/05 01:40:18;;;;;;;17.83;10.07;;;102.90;1664.00;;;;;;5078019;28;20032;-72
2021/03/05 01:42:44;;;;;;;16.80;9.82;;;103.00;1689.60;;;;;;5077880;28;20040;-72
2021/03/05 01:45:17;;;;;;;16.58;9.57;;;102.90;1664.00;;;;;;5078192;28;20016;-72
2021/03/05 01:47:47;;;;;;;14.48;9.32;;;103.00;1664.00;;;;;;5078232;28;20056;-72
2021/03/05 01:50:25;;;;;;;16.52;9.73;;;103.00;1664.00;;;;;;5077842;28;20051;-72
2021/03/05 01:53:01;;;;;;;14.57;9.30;;;103.00;1664.00;;;;;;5078377;28;20143;-72
2021/03/05 01:55:27;;;;;;;16.48;9.80;;;103.00;1664.00;;;;;;5078005;28;20101;-72
2021/03/05 01:57:54;;;;;;;19.13;9.93;;;102.90;1664.00;;;;;;5077616;28;20024;-72
2021/03/05 02:00:32;;;;;;;19.10;10.32;;;102.90;1664.00;;;;;;5078000;28;20025;-72
2021/03/05 02:02:58;;;;;;;17.08;9.90;;;102.80;1664.00;;;;;;5077336;28;20496;-72
2021/03/05 02:05:24;;;;;;;17.92;9.48;;;102.80;1664.00;;;;;;5077367;28;20083;-72
2021/03/05 02:07:50;;;;;;;16.58;9.77;;;102.80;1664.00;;;;;;5077821;28;20473;-72
2021/03/05 02:10:16;;;;;;;15.60;9.45;;;102.80;1664.00;;;;;;5077264;28;20025;-72
2021/03/05 02:12:41;;;;;;;15.88;9.35;;;102.70;1664.00;;;;;;5077515;28;20074;-71
2021/03/05 02:15:08;;;;;;;14.02;8.63;;;102.70;1689.60;;;;;;5077749;28;20051;-71
2021/03/05 02:17:42;;;;;;;16.95;9.70;;;102.60;1689.60;;;;;;5077469;28;20035;-72
2021/03/05 02:20:31;;;;;;;12.45;8.80;;;102.60;1689.60;;;;;;5077093;28;20384;-72
2021/03/05 02:23:39;;;;;;;17.80;9.35;;;102.60;1689.60;;;;;;5077646;28;20024;-72
2021/03/05 02:26:52;;;;;;;14.85;8.93;;;102.60;1689.60;;;;;;5075127;28;20059;-71
2021/03/05 02:29:49;;;;;;;16.15;9.52;;;102.50;1689.60;;;;;;5077273;28;20025;-72
2021/03/05 02:32:21;;;;;;;16.25;9.88;;;102.50;1715.20;;;;;;5077358;28;20334;-72
2021/03/05 02:34:49;;;;;;;17.67;10.00;;;102.50;1715.20;;;;;;5077312;28;20028;-72
2021/03/05 02:37:15;;;;;;;17.25;9.93;;;102.40;1715.20;;;;;;5077194;28;20033;-72
2021/03/05 02:39:58;;;;;;;15.73;8.45;;;102.40;1715.20;;;;;;5076949;28;20126;-72
2021/03/05 02:42:31;;;;;;;17.63;9.98;;;102.40;1715.20;;;;;;5077193;28;20532;-72
2021/03/05 02:45:06;;;;;;;15.82;9.07;;;102.40;1740.80;;;;;;5077429;28;20058;-71
2021/03/05 02:47:34;;;;;;;17.73;9.18;;;77.70;1740.80;;;;;;5077165;28;20021;-71
2021/03/05 02:50:01;;;;;;;20.42;10.15;;;77.60;1740.80;;;;;;5077377;28;20031;-72
2021/03/05 02:52:30;;;;;;;15.95;9.15;;;77.60;1740.80;;;;;;5077097;28;20056;-72
2021/03/05 02:54:58;;;;;;;14.30;9.45;;;77.70;1740.80;;;;;;5076783;28;20024;-72
2021/03/05 02:57:31;;;;;;;14.95;9.10;;;77.70;1740.80;;;;;;5076958;28;20032;-72
2021/03/05 02:59:58;;;;;;;17.13;9.70;;;77.70;1740.80;;;;;;5076778;28;20024;-72
2021/03/05 03:02:25;;;;;;;15.07;9.07;;;77.70;1715.20;;;;;;5076620;28;20029;-72
2021/03/05 03:04:53;;;;;;;18.58;9.85;;;77.70;1715.20;;;;;;5076727;28;20028;-72
2021/03/05 03:07:20;;;;;;;15.50;9.90;;;77.70;1740.80;;;;;;5076965;28;20036;-72
2021/03/05 03:09:47;;;;;;;16.10;10.20;;;77.70;1740.80;;;;;;5076981;28;20033;-71
2021/03/05 03:12:15;;;;;;;16.08;9.63;;;77.70;1740.80;;;;;;5076837;28;20036;-72
2021/03/05 03:14:43;;;;;;;14.80;8.82;;;77.70;1740.80;;;;;;5076062;28;20497;-72
2021/03/05 03:17:10;;;;;;;15.02;9.52;;;77.60;1740.80;;;;;;5076820;28;20338;-71
2021/03/05 03:19:38;;;;;;;21.48;9.98;;;77.70;1740.80;;;;;;5076529;28;20122;-72
2021/03/05 03:22:05;;;;;;;14.47;8.77;;;77.70;1740.80;;;;;;5076745;28;20040;-72
2021/03/05 03:24:32;;;;;;;16.08;9.48;;;77.70;1740.80;;;;;;5077035;28;20073;-72
2021/03/05 03:26:58;;;;;;;20.13;9.95;;;77.70;1740.80;;;;;;5076774;28;20028;-72
2021/03/05 03:29:25;;;;;;;16.85;10.15;;;77.70;1766.40;;;;;;5076489;28;20035;-72
2021/03/05 03:31:51;;;;;;;17.17;9.25;;;77.60;1766.40;;;;;;5076699;28;20420;-72
2021/03/05 03:34:19;;;;;;;17.92;10.13;;;77.60;1766.40;;;;;;5078756;28;20437;-72
2021/03/05 03:36:47;;;;;;;17.20;9.73;;;77.50;1766.40;;;;;;5086991;28;20024;-72
2021/03/05 03:39:13;;;;;;;17.83;9.55;;;77.50;1766.40;;;;;;5085939;28;20024;-71
2021/03/05 03:41:40;;;;;;;19.60;10.50;;;77.50;1766.40;;;;;;5093434;28;20081;-72
2021/03/05 03:44:10;;;;;;;16.70;9.55;;;77.50;1766.40;;;;;;5096767;28;20047;-72
2021/03/05 03:46:39;;;;;;;16.85;9.90;;;77.40;1792.00;;;;;;5096788;28;20032;-72
2021/03/05 03:49:25;;;;;;;16.92;9.20;;;77.40;1792.00;;;;;;5096436;28;20043;-71
2021/03/05 03:51:59;;;;;;;17.02;10.27;;;77.30;1817.60;;;;;;5100649;28;20059;-71
2021/03/05 03:54:26;;;;;;;14.65;9.38;;;77.30;1792.00;;;;;;5100395;28;20050;-72
2021/03/05 03:56:54;;;;;;;18.40;11.63;;;77.40;1792.00;;;;;;5100027;28;20027;-72
2021/03/05 03:59:22;;;;;;;23.35;10.77;;;77.40;1792.00;;;;;;5099999;28;20016;-72
2021/03/05 04:01:49;;;;;;;20.10;10.85;;;77.40;1792.00;;;;;;5100144;28;20487;-72
2021/03/05 04:04:16;;;;;;;16.40;9.82;;;77.50;1792.00;;;;;;5099887;28;20051;-72
2021/03/05 04:06:49;;;;;;;16.50;9.50;;;77.50;1792.00;;;;;;5099886;28;20024;-72
2021/03/05 04:09:16;;;;;;;15.32;9.82;;;77.50;1792.00;;;;;;5100337;28;20031;-72
2021/03/05 04:11:42;;;;;;;17.02;9.90;;;77.50;1817.60;;;;;;5099785;28;20047;-72
2021/03/05 04:14:09;;;;;;;15.52;9.77;;;77.40;1817.60;;;;;;5099679;28;20020;-73
2021/03/05 04:16:35;;;;;;;16.35;10.02;;;77.40;1817.60;;;;;;5091874;28;20303;-72
2021/03/05 04:19:01;;;;;;;15.32;9.98;;;77.40;1817.60;;;;;;5079658;28;20024;-72
2021/03/05 04:21:32;;;;;;;17.92;10.40;;;77.40;1817.60;;;;;;5090338;28;20201;-71
2021/03/05 04:23:57;;;;;;;17.65;9.35;;;77.50;1817.60;;;;;;5099834;28;20028;-72
2021/03/05 04:26:23;;;;;;;18.83;10.73;;;77.40;1817.60;;;;;;5087453;28;20039;-72
2021/03/05 04:28:49;;;;;;;19.67;10.30;;;77.40;1817.60;;;;;;5079349;28;20029;-73
2021/03/05 04:31:15;;;;;;;17.85;10.40;;;77.40;1817.60;;;;;;5079167;28;20020;-72
2021/03/05 04:33:41;;;;;;;18.40;10.30;;;77.40;1817.60;;;;;;5079185;28;20039;-72
2021/03/05 04:36:07;;;;;;;17.73;10.45;;;77.40;1817.60;;;;;;5079050;28;20414;-73
2021/03/05 04:38:33;;;;;;;18.75;10.88;;;77.40;1817.60;;;;;;5078063;28;20402;-72
2021/03/05 04:40:59;;;;;;;16.40;10.70;;;77.40;1817.60;;;;;;5078672;28;20078;-72
2021/03/05 04:43:25;;;;;;;18.45;11.13;;;77.40;1843.20;;;;;;5079002;28;20044;-71
2021/03/05 04:45:51;;;;;;;19.05;11.65;;;77.30;1843.20;;;;;;5078975;28;20032;-72
2021/03/05 04:48:17;;;;;;;21.90;11.77;;;77.30;1843.20;;;;;;5089465;28;20028;-71
2021/03/05 04:50:43;;;;;;;20.08;10.95;;;77.40;1843.20;;;;;;5087045;28;20017;-72
2021/03/05 04:53:10;;;;;;;22.15;11.07;;;77.40;1843.20;;;;;;5088913;28;20055;-72
2021/03/05 04:55:36;;;;;;;21.55;11.20;;;77.40;1843.20;;;;;;5078760;28;20025;-72
2021/03/05 04:58:02;;;;;;;19.48;11.65;;;77.30;1843.20;;;;;;5079110;28;20077;-71
2021/03/05 05:00:28;;;;;;;18.98;10.48;;;77.40;1843.20;;;;;;5078463;28;20024;-72
2021/03/05 05:02:54;;;;;;;25.17;12.55;;;77.30;1868.80;;;;;;5085451;28;20062;-72
2021/03/05 05:05:20;;;;;;;19.77;10.95;;;77.30;1868.80;;;;;;5083788;28;20020;-72
2021/03/05 05:07:46;;;;;;;17.77;11.15;;;77.30;1868.80;;;;;;5088211;28;20020;-72
2021/03/05 05:10:12;;;;;;;20.17;11.75;;;77.30;1868.80;;;;;;5087365;28;20337;-72
2021/03/05 05:12:38;;;;;;;17.63;11.20;;;77.30;1868.80;;;;;;5078275;28;20032;-72
2021/03/05 05:15:05;;;;;;;23.65;12.10;;;77.30;1868.80;;;;;;5078596;28;20476;-72
2021/03/05 05:17:31;;;;;;;28.35;18.40;;;77.30;1894.40;;;;;;5078670;28;20094;-72
2021/03/05 05:19:57;;;;;;;24.60;16.42;;;77.30;1894.40;;;;;;5078183;28;20024;-73
2021/03/05 05:22:23;;;;;;;20.27;11.43;;;77.20;1894.40;;;;;;5078580;28;20037;-71
2021/03/05 05:24:49;;;;;;;20.55;11.82;;;77.20;1894.40;;;;;;5078598;28;20028;-71
2021/03/05 05:27:15;;;;;;;19.25;11.10;;;77.20;1894.40;;;;;;5078287;28;20035;-73
2021/03/05 05:29:41;;;;;;;17.60;10.88;;;77.30;1894.40;;;;;;5082781;28;20421;-72
2021/03/05 05:32:07;;;;;;;20.95;11.32;;;77.30;1894.40;;;;;;5098755;28;20111;-71
2021/03/05 05:34:32;;;;;;;19.42;10.50;;;77.30;1894.40;;;;;;5098160;28;20020;-72
2021/03/05 05:36:58;;;;;;;16.05;10.15;;;77.30;1894.40;;;;;;5098200;28;20024;-72
2021/03/05 05:39:24;;;;;;;18.80;11.07;;;77.30;1894.40;;;;;;5098616;28;20032;-72
2021/03/05 05:41:50;;;;;;;23.08;12.25;;;77.40;1894.40;;;;;;5098244;28;20114;-73
2021/03/05 05:44:15;;;;;;;20.08;12.52;;;77.50;1894.40;;;;;;5098271;28;20409;-72
2021/03/05 05:46:42;;;;;;;24.20;12.77;;;77.60;1894.40;;;;;;5098300;28;20073;-73
2021/03/05 05:49:10;;;;;;;17.17;11.82;;;77.60;1868.80;;;;;;5082120;28;20032;-71
2021/03/05 05:51:39;;;;;;;18.00;10.90;;;77.70;1868.80;;;;;;5093247;28;20040;-72
2021/03/05 05:54:10;;;;;;;18.42;11.18;;;77.70;1868.80;;;;;;5096964;28;20032;-72
2021/03/05 05:56:44;;;;;;;18.60;12.00;;;77.70;1868.80;;;;;;5096237;28;20028;-73
2021/03/05 05:59:10;;;;;;;23.90;14.40;;;102.40;1868.80;;;;;;5096314;28;20031;-72
2021/03/05 06:01:36;;;;;;;19.67;12.85;;;102.50;1868.80;;;;;;5096552;28;20024;-72
2021/03/05 06:04:04;;;;;;;24.10;15.52;;;102.60;1868.80;;;;;;5097700;28;20027;-72
2021/03/05 06:06:30;;;;;;;20.67;12.45;;;102.70;1843.20;;;;;;5097508;28;20107;-71
2021/03/05 06:09:01;;;;;;;20.95;11.77;;;102.70;1843.20;;;;;;5097592;28;20073;-72
2021/03/05 06:11:38;;;;;;;27.50;12.20;;;102.80;1843.20;;;;;;5097783;28;20084;-71
2021/03/05 06:14:06;;;;;;;20.35;12.45;;;102.80;1817.60;;;;;;5097694;28;20111;-74
2021/03/05 06:16:32;;;;;;;22.02;11.38;;;102.80;1817.60;;;;;;5097441;28;20077;-73
2021/03/05 06:18:59;;;;;;;18.50;11.73;;;103.00;1817.60;;;;;;5097987;28;20047;-73
2021/03/05 06:21:40;;;;;;;22.00;11.63;;;103.00;1817.60;;;;;;5097652;28;20111;-72
2021/03/05 06:24:09;;;;;;;21.45;10.63;;;103.20;1817.60;;;;;;5097277;28;20063;-72
2021/03/05 06:26:54;;;;;;;18.58;12.43;;;103.30;1792.00;;;;;;5097892;28;20032;-72
2021/03/05 06:29:28;;;;;;;22.98;12.02;;;128.10;1817.60;;;;;;5097229;28;20485;-71
2021/03/05 06:32:00;;;;;;;22.27;14.38;;;128.20;1792.00;;;;;;5087388;28;20055;-73
2021/03/05 06:34:27;;;;;;;19.42;11.27;;;128.30;1792.00;;;;;;5076490;28;20024;-73
2021/03/05 06:37:01;;;;;;;17.55;11.05;;;128.60;1792.00;;;;;;5075871;28;20177;-72
2021/03/05 06:39:28;;;;;;;18.65;10.85;;;128.60;1792.00;;;;;;5076701;28;20083;-72
2021/03/05 06:42:05;;;;;;;28.58;17.85;;;128.70;1766.40;;;;;;5076441;28;20492;-73
2021/03/05 06:44:33;;;;;;;20.70;11.85;;;128.90;1740.80;;;;;;5077080;28;20032;-72
2021/03/05 06:47:08;;;;;;;19.25;10.98;;;153.70;1740.80;;;;;;5079605;28;20032;-72
2021/03/05 06:49:33;;;;;;;19.40;13.30;;;153.90;1715.20;;;;;;5077469;28;20073;-73
2021/03/05 06:51:59;;;;;;;20.00;13.30;;;154.10;1689.60;;;;;;5079912;28;20056;-72
2021/03/05 06:54:34;;;;;;;19.25;10.98;;;154.20;1689.60;;;;;;5096968;28;20032;-72
2021/03/05 06:57:01;;;;;;;19.05;10.15;;;154.40;1664.00;;;;;;5086688;28;20091;-72
2021/03/05 06:59:37;;;;;;;24.25;14.15;;;179.20;1664.00;;;;;;5096411;28;20032;-71
2021/03/05 07:02:05;;;;;;;19.55;12.73;;;179.50;1689.60;;;;;;5089684;28;20029;-71
2021/03/05 07:04:43;;;;;;;26.30;12.95;;;179.60;1689.60;;;;;;5088810;28;20028;-73
2021/03/05 07:07:12;;;;;;;25.85;11.73;;;179.70;1715.20;;;;;;5086566;28;20326;-72
2021/03/05 07:09:47;;;;;;;24.23;12.05;;;179.70;1715.20;;;;;;5087326;28;20021;-72
2021/03/05 07:12:24;;;;;;;21.90;11.93;;;179.90;1689.60;;;;;;5086355;28;20315;-72
2021/03/05 07:14:59;;;;;;;29.52;12.88;;;180.00;1715.20;;;;;;5086157;28;20017;-72
2021/03/05 07:17:25;;;;;;;24.17;12.07;;;204.80;1715.20;;;;;;5085704;28;20024;-72
2021/03/05 07:19:59;;;;;;;22.60;12.18;;;204.90;1664.00;;;;;;5085057;28;20020;-72
2021/03/05 07:22:29;;;;;;;29.75;12.43;;;205.10;1664.00;;;;;;5085651;28;20377;-72
2021/03/05 07:24:57;;;;;;;22.75;12.15;;;205.20;1612.80;;;;;;5086379;28;20038;-72
2021/03/05 07:27:37;;;;;;;33.92;13.60;;;205.40;1664.00;;;;;;5088798;28;20107;-72
2021/03/05 07:30:04;;;;;;;37.83;14.55;;;205.50;1664.00;;;;;;5089221;28;20016;-72
2021/03/05 07:32:46;;;;;;;27.55;14.10;;;205.70;1689.60;;;;;;5089583;28;20440;-72
2021/03/05 07:35:45;;;;;;;34.20;12.57;;;205.70;1664.00;;;;;;5093099;28;20028;-72
2021/03/05 07:38:18;;;;;;;26.58;12.77;;;230.50;1638.40;;;;;;5090374;28;20066;-72
2021/03/05 07:40:52;;;;;;;31.92;13.50;;;230.70;1612.80;;;;;;5088241;28;20028;-73
2021/03/05 07:43:19;;;;;;;34.58;13.52;;;230.90;1587.20;;;;;;5087536;28;20028;-72
2021/03/05 07:45:45;;;;;;;30.23;13.73;;;231.00;1587.20;;;;;;5090268;28;20020;-72
2021/03/05 07:48:13;;;;;;;30.27;13.15;;;231.20;1536.00;;;;;;5088583;28;20071;-72
2021/03/05 07:50:39;;;;;;;24.60;12.85;;;231.30;1484.80;;;;;;5088999;28;20020;-71
2021/03/05 07:53:05;;;;;;;22.15;12.00;;;256.10;1459.20;;;;;;5090207;28;20051;-72
2021/03/05 07:55:40;;;;;;;24.60;11.80;;;256.20;1382.40;;;;;;5088382;28;20418;-72
2021/03/05 07:58:07;;;;;;;27.42;11.68;;;256.50;1356.80;;;;;;5090582;28;20020;-72
2021/03/05 08:00:44;;;;;;;25.60;12.27;;;256.60;1331.20;;;;;;5089024;28;20056;-72
2021/03/05 08:03:10;;;;;;;41.30;14.05;;;256.80;1305.60;;;;;;5088745;28;20028;-72
2021/03/05 08:05:39;;;;;;;34.90;12.88;;;256.90;1331.20;;;;;;5089494;28;20405;-72
2021/03/05 08:08:11;;;;;;;41.33;12.20;;;281.60;1356.80;;;;;;5089875;28;20060;-72
2021/03/05 08:10:39;;;;;;;35.97;13.05;;;281.90;1331.20;;;;;;5089378;28;20020;-72
2021/03/05 08:13:51;;;;;;;24.92;12.27;;;282.10;1331.20;;;;;;5094244;28;20342;-72
2021/03/05 08:16:33;;;;;;;33.20;12.90;;;282.20;1305.60;;;;;;5086359;28;20046;-71
2021/03/05 08:19:07;;;;;;;42.25;12.93;;;282.40;1305.60;;;;;;5085948;28;20028;-72
2021/03/05 08:21:58;;;;;;;18.50;10.70;;;282.40;1305.60;;;;;;5084846;28;20028;-72
2021/03/05 08:24:26;;;;;;;16.73;10.07;;;282.30;1254.40;;;;;;5088562;28;20027;-71
2021/03/05 08:27:05;;;;;;;17.40;11.18;;;282.40;1254.40;;;;;;5087937;28;20032;-71
2021/03/05 08:29:51;;;;;;;16.17;9.23;;;282.40;1254.40;;;;;;5087816;28;20023;-71
2021/03/05 08:32:34;;;;;;;13.48;7.97;;;282.40;1203.20;;;;;;5089638;28;20391;-70
2021/03/05 08:35:02;;;;;;;15.13;8.60;;;282.40;1177.60;;;;;;5088084;28;20023;-71
2021/03/05 08:37:30;;;;;;;14.20;8.65;;;307.20;1203.20;;;;;;5087521;28;20027;-70
2021/03/05 08:40:14;;;;;;;32.90;9.00;;;307.30;1203.20;;;;;;5089505;28;20023;-71
2021/03/05 08:42:44;;;;;;;14.30;8.23;;;307.30;1203.20;;;;;;5087374;28;20041;-71
2021/03/05 08:45:12;;;;;;;18.50;9.32;;;307.40;1177.60;;;;;;5088079;28;20093;-71
2021/03/05 08:47:40;;;;;;;13.35;8.23;;;307.60;1203.20;;;;;;5081481;28;20030;-71
2021/03/05 08:50:07;;;;;;;13.50;7.97;;;307.60;1126.40;;;;;;5078343;28;20341;-71
2021/03/05 08:52:33;;;;;;;12.70;8.10;;;307.70;1126.40;;;;;;5081569;28;20051;-70
2021/03/05 08:55:02;;;;;;;14.27;7.80;;;307.70;1152.00;;;;;;5089456;28;20020;-71
2021/03/05 08:57:36;;;;;;;;;;;307.90;1126.40;;;;;;5087982;28;20016;-71
2021/03/05 09:00:02;;;;;;;19.88;8.30;;;307.90;1126.40;;;;;;5086856;28;20229;-71
2021/03/05 09:02:29;;;;;;;16.20;8.48;;;308.00;1126.40;;;;;;5088357;28;20024;-71
2021/03/05 09:04:55;;;;;;;15.02;8.13;;;308.10;1126.40;;;;;;5088601;28;20032;-70
2021/03/05 09:07:20;;;;;;;13.70;7.88;;;308.10;1126.40;;;;;;5087182;28;20429;-71
2021/03/05 09:09:50;;;;;;;19.85;7.97;;;332.80;1177.60;;;;;;5088314;28;20081;-71
2021/03/05 09:12:18;;;;;;;23.05;11.18;;;332.90;1152.00;;;;;;5088763;28;20024;-71
2021/03/05 09:14:46;;;;;;;21.87;11.43;;;333.10;1126.40;;;;;;5086965;28;20021;-71
2021/03/05 09:17:13;;;;;;;34.17;19.50;;;333.20;1100.80;;;;;;5087369;28;20103;-71
2021/03/05 09:19:41;;;;;;;49.55;34.22;;;333.40;1126.40;;;;;;5088063;28;20055;-71
2021/03/05 09:22:15;;;;;;;13.50;8.32;;;333.60;1126.40;;;;;;5085484;28;20483;-71
2021/03/05 09:24:47;;;;;;;13.35;6.78;;;333.70;1075.20;;;;;;5084626;28;20027;-71
2021/03/05 09:27:22;;;;;;;25.00;15.70;;;333.60;1049.60;;;;;;5080442;28;20349;-71
2021/03/05 09:29:48;;;;;;;15.95;7.85;;;358.40;1075.20;;;;;;5077304;28;20119;-69
2021/03/05 09:32:13;;;;;;;14.50;7.45;;;358.60;1075.20;;;;;;5077674;28;20071;-70
2021/03/05 09:35:00;;;;;;;11.73;7.32;;;358.60;1049.60;;;;;;5077630;28;20078;-69
2021/03/05 09:37:27;;;;;;;14.32;7.00;;;358.60;1024.00;;;;;;5078239;28;20016;-69
2021/03/05 09:39:57;;;;;;;15.23;8.15;;;358.60;1024.00;;;;;;5077408;28;20410;-70
2021/03/05 09:42:45;;;;;;;22.58;12.60;;;358.70;1049.60;;;;;;5077669;28;20032;-71
2021/03/05 09:45:11;;;;;;;24.65;11.35;;;358.80;1024.00;;;;;;5078077;28;20031;-71
2021/03/05 09:47:48;;;;;;;16.95;8.23;;;358.80;1024.00;;;;;;5076523;28;20039;-71
2021/03/05 09:50:19;;;;;;;10.70;7.00;;;358.80;1024.00;;;;;;5076433;28;20432;-71
2021/03/05 09:52:48;;;;;;;15.05;7.93;;;358.70;998.40;;;;;;5077669;28;20338;-71
2021/03/05 09:55:29;;;;;;;15.68;7.28;;;358.90;1024.00;;;;;;5076122;28;20070;-71
2021/03/05 09:57:56;;;;;;;14.95;8.90;;;358.90;998.40;;;;;;5077296;28;20024;-71
2021/03/05 10:00:31;;;;;;;11.63;6.85;;;359.20;998.40;;;;;;5077286;28;20031;-71
2021/03/05 10:03:14;;;;;;;8.40;4.45;;;384.00;972.80;;;;;;5077287;28;20061;-70
2021/03/05 10:05:41;;;;;;;8.70;4.68;;;384.10;972.80;;;;;;5076756;28;20329;-71
2021/03/05 10:08:28;;;;;;;9.23;6.07;;;384.10;947.20;;;;;;5076923;28;20024;-71
2021/03/05 10:10:59;;;;;;;11.32;6.32;;;384.00;972.80;;;;;;5077668;28;20059;-71
2021/03/05 10:13:45;;;;;;;13.18;6.10;;;384.00;972.80;;;;;;5077351;28;20032;-70
2021/03/05 10:16:16;;;;;;;9.05;5.97;;;384.00;947.20;;;;;;5077568;28;20036;-71
2021/03/05 10:18:43;;;;;;;11.00;5.55;;;384.00;972.80;;;;;;5075433;28;20020;-71
2021/03/05 10:21:11;;;;;;;11.32;6.00;;;384.00;972.80;;;;;;5076288;28;20031;-71
2021/03/05 10:23:38;;;;;;;11.57;6.47;;;359.30;998.40;;;;;;5076802;28;20119;-71
2021/03/05 10:26:11;;;;;;;11.50;6.70;;;384.00;972.80;;;;;;5077057;28;20024;-71
2021/03/05 10:28:39;;;;;;;10.88;6.60;;;359.30;972.80;;;;;;5076357;28;20025;-71
2021/03/05 10:31:05;;;;;;;14.60;6.97;;;359.20;947.20;;;;;;5076838;28;20028;-71
2021/03/05 10:33:42;;;;;;;8.60;5.55;;;384.00;947.20;;;;;;5076617;28;20028;-71
2021/03/05 10:36:08;;;;;;;10.00;5.97;;;384.20;972.80;;;;;;5077197;28;20120;-71
2021/03/05 10:38:39;;;;;;;13.82;5.93;;;384.30;972.80;;;;;;5076717;28;20450;-71
2021/03/05 10:41:15;;;;;;;10.45;6.13;;;384.30;947.20;;;;;;5076928;28;20077;-71
2021/03/05 10:43:43;;;;;;;11.43;6.28;;;384.50;972.80;;;;;;5076250;28;20029;-71
2021/03/05 10:46:09;;;;;;;10.60;6.80;;;384.60;947.20;;;;;;5076954;28;20434;-71
2021/03/05 10:48:35;;;;;;;9.27;6.13;;;384.50;921.60;;;;;;5076240;28;20035;-71
2021/03/05 10:51:04;;;;;;;11.90;5.88;;;384.70;947.20;;;;;;5075145;28;20025;-71
2021/03/05 10:53:30;;;;;;;11.85;6.95;;;384.80;947.20;;;;;;5076781;28;20035;-71
2021/03/05 10:55:56;;;;;;;10.25;6.20;;;384.80;921.60;;;;;;5076581;28;20024;-70
2021/03/05 10:58:22;;;;;;;10.35;6.05;;;384.80;921.60;;;;;;5077030;28;20044;-71
2021/03/05 11:00:48;;;;;;;10.43;6.57;;;384.80;921.60;;;;;;5079230;28;20029;-71
2021/03/05 11:03:14;;;;;;;11.57;6.47;;;384.90;921.60;;;;;;5080885;28;20029;-71
2021/03/05 11:05:40;;;;;;;8.65;5.85;;;409.70;972.80;;;;;;5080848;28;20051;-71
2021/03/05 11:08:06;;;;;;;10.55;6.50;;;409.90;947.20;;;;;;5081167;28;20028;-71
2021/03/05 11:10:32;;;;;;;10.93;6.95;;;410.00;947.20;;;;;;5098384;28;20030;-71
2021/03/05 11:12:58;;;;;;;11.18;6.65;;;410.20;972.80;;;;;;5100941;28;20028;-71
2021/03/05 11:15:23;;;;;;;11.43;7.05;;;410.30;896.00;;;;;;5101307;28;20115;-71
2021/03/05 11:17:49;;;;;;;14.45;7.43;;;410.40;921.60;;;;;;5100909;28;20028;-70
2021/03/05 11:20:15;;;;;;;10.98;6.82;;;410.30;921.60;;;;;;5100884;28;20028;-70
2021/03/05 11:22:41;;;;;;;10.68;7.03;;;435.20;896.00;;;;;;5100937;28;20031;-71
2021/03/05 11:25:07;;;;;;;9.63;5.90;;;435.50;896.00;;;;;;5100202;28;20032;-70
2021/03/05 11:27:35;;;;;;;11.98;6.88;;;435.70;896.00;;;;;;5100876;28;20024;-70
2021/03/05 11:30:04;;;;;;;10.32;6.80;;;435.70;870.40;;;;;;5095123;28;20323;-71
2021/03/05 11:32:50;;;;;;;;;;;;;;;;;;;;;
2021/03/05 11:35:17;;;;;;;12.48;8.13;;;460.90;870.40;;;;;;5087656;28;20034;-72
2021/03/05 11:37:42;;;;;;;19.30;7.97;;;436.00;870.40;;;;;;5089596;28;20099;-70
2021/03/05 11:40:09;;;;;;;11.10;6.72;;;461.30;870.40;;;;;;5082701;28;20025;-70
2021/03/05 11:42:35;;;;;;;17.73;8.30;;;460.90;870.40;;;;;;5079744;28;20029;-70
2021/03/05 11:45:04;;;;;;;12.15;6.63;;;461.60;870.40;;;;;;5079903;28;20380;-70
2021/03/05 11:47:34;;;;;;;10.90;6.75;;;461.60;844.80;;;;;;5079737;28;20410;-71
2021/03/05 11:50:00;;;;;;;10.27;6.72;;;461.70;844.80;;;;;;5079675;28;20028;-71
2021/03/05 11:52:27;;;;;;;11.02;6.97;;;486.50;844.80;;;;;;5079687;28;20084;-70
2021/03/05 11:54:53;;;;;;;16.92;6.72;;;487.00;819.20;;;;;;5079895;28;20111;-71
2021/03/05 11:57:19;;;;;;;10.88;6.95;;;512.40;768.00;;;;;;5083168;28;20107;-71
2021/03/05 11:59:45;;;;;;;13.20;7.30;;;537.60;819.20;;;;;;5099826;28;20051;-71
2021/03/05 12:02:10;;;;;;;12.90;5.85;;;538.00;793.60;;;;;;5099995;28;20067;-71
2021/03/05 12:04:36;;;;;;;10.50;6.13;;;538.20;768.00;;;;;;5099288;28;20394;-71
2021/03/05 12:07:02;;;;;;;11.75;6.43;;;538.40;768.00;;;;;;5099713;28;20052;-71
2021/03/05 12:09:28;;;;;;;9.27;6.13;;;588.80;768.00;;;;;;5099886;28;20030;-70
2021/03/05 12:11:53;;;;;;;10.02;6.07;;;691.40;691.20;;;;;;5099627;28;20028;-70
2021/03/05 12:14:19;;;;;;;10.80;5.90;;;742.70;691.20;;;;;;5098460;28;20418;-71
2021/03/05 12:17:45;;;;;;;7.00;4.93;;;819.20;640.00;;;;;;5099452;28;20103;-71
2021/03/05 12:20:20;;;;;;;9.35;5.68;;;845.30;588.80;;;;;;5097007;28;20489;-71
2021/03/05 12:23:18;;;;;;;7.45;5.07;;;870.60;563.20;;;;;;5098239;28;20448;-72